sensor_id;sensor_type;location;lat;lon;timestamp;pressure;altitude;pressure_sealevel;temperature;humidity
11339;BME280;5724;42.684;23.252;2024-03-29T00:00:10;94127.75;;;11.74;55.58
11339;BME280;5724;42.684;23.252;2024-03-29T00:02:56;94125.09;;;11.78;55.10
11339;BME280;5724;42.684;23.252;2024-03-29T00:05:40;94132.97;;;11.56;56.53
11339;BME280;5724;42.684;23.252;2024-03-29T00:08:24;94136.19;;;11.09;58.30
11339;BME280;5724;42.684;23.252;2024-03-29T00:11:08;94133.31;;;10.75;59.78
11339;BME280;5724;42.684;23.252;2024-03-29T00:13:53;94136.22;;;10.63;60.42
11339;BME280;5724;42.684;23.252;2024-03-29T00:16:37;94140.97;;;10.66;60.06
11339;BME280;5724;42.684;23.252;2024-03-29T00:19:21;94151.66;;;10.75;60.62
11339;BME280;5724;42.684;23.252;2024-03-29T00:22:05;94138.84;;;10.79;59.21
11339;BME280;5724;42.684;23.252;2024-03-29T00:24:49;94153.22;;;10.99;58.39
11339;BME280;5724;42.684;23.252;2024-03-29T00:27:33;94158.97;;;11.16;58.30
11339;BME280;5724;42.684;23.252;2024-03-29T00:30:18;94169.78;;;11.32;57.68
11339;BME280;5724;42.684;23.252;2024-03-29T00:33:04;94168.72;;;11.40;56.68
11339;BME280;5724;42.684;23.252;2024-03-29T00:35:49;94162.97;;;11.75;54.66
11339;BME280;5724;42.684;23.252;2024-03-29T00:38:33;94140.69;;;11.47;56.77
11339;BME280;5724;42.684;23.252;2024-03-29T00:41:17;94167.28;;;11.24;57.73
11339;BME280;5724;42.684;23.252;2024-03-29T00:44:02;94157.44;;;10.93;58.36
11339;BME280;5724;42.684;23.252;2024-03-29T00:46:47;94167.19;;;10.94;59.79
11339;BME280;5724;42.684;23.252;2024-03-29T00:49:31;94161.19;;;10.84;59.80
11339;BME280;5724;42.684;23.252;2024-03-29T00:52:15;94164.75;;;10.88;58.73
11339;BME280;5724;42.684;23.252;2024-03-29T00:54:59;94168.03;;;10.98;58.98
11339;BME280;5724;42.684;23.252;2024-03-29T00:57:44;94175.28;;;10.86;59.21
11339;BME280;5724;42.684;23.252;2024-03-29T01:00:28;94164.56;;;10.55;60.76
11339;BME280;5724;42.684;23.252;2024-03-29T01:03:13;94164.66;;;10.39;61.22
11339;BME280;5724;42.684;23.252;2024-03-29T01:05:57;94160.50;;;10.45;61.32
11339;BME280;5724;42.684;23.252;2024-03-29T01:08:41;94169.75;;;10.21;62.02
11339;BME280;5724;42.684;23.252;2024-03-29T01:11:25;94173.44;;;10.10;62.94
11339;BME280;5724;42.684;23.252;2024-03-29T01:14:10;94167.91;;;9.87;63.93
11339;BME280;5724;42.684;23.252;2024-03-29T01:16:54;94171.31;;;9.84;64.06
11339;BME280;5724;42.684;23.252;2024-03-29T01:19:39;94179.09;;;9.82;64.72
11339;BME280;5724;42.684;23.252;2024-03-29T01:22:23;94166.19;;;9.98;64.19
11339;BME280;5724;42.684;23.252;2024-03-29T01:25:07;94167.38;;;9.81;64.59
11339;BME280;5724;42.684;23.252;2024-03-29T01:27:53;94170.47;;;9.80;64.71
11339;BME280;5724;42.684;23.252;2024-03-29T01:30:38;94161.13;;;9.81;64.98
11339;BME280;5724;42.684;23.252;2024-03-29T01:33:22;94161.13;;;9.81;65.12
11339;BME280;5724;42.684;23.252;2024-03-29T01:36:09;94166.44;;;9.73;65.05
11339;BME280;5724;42.684;23.252;2024-03-29T01:38:53;94162.03;;;10.04;63.29
11339;BME280;5724;42.684;23.252;2024-03-29T01:41:41;94172.63;;;10.09;63.25
11339;BME280;5724;42.684;23.252;2024-03-29T01:44:25;94158.41;;;10.00;63.27
11339;BME280;5724;42.684;23.252;2024-03-29T01:47:09;94172.06;;;10.19;62.93
11339;BME280;5724;42.684;23.252;2024-03-29T01:49:53;94181.63;;;10.29;62.41
11339;BME280;5724;42.684;23.252;2024-03-29T01:52:38;94192.84;;;10.43;61.91
11339;BME280;5724;42.684;23.252;2024-03-29T01:55:23;94197.72;;;10.15;62.86
11339;BME280;5724;42.684;23.252;2024-03-29T01:58:09;94190.38;;;10.19;62.72
11339;BME280;5724;42.684;23.252;2024-03-29T02:01:00;94195.34;;;10.32;61.98
11339;BME280;5724;42.684;23.252;2024-03-29T02:03:46;94221.00;;;10.47;61.35
11339;BME280;5724;42.684;23.252;2024-03-29T02:06:30;94218.06;;;10.56;61.38
11339;BME280;5724;42.684;23.252;2024-03-29T02:09:15;94238.63;;;10.50;61.99
11339;BME280;5724;42.684;23.252;2024-03-29T02:11:59;94234.53;;;10.40;62.16
11339;BME280;5724;42.684;23.252;2024-03-29T02:14:43;94254.94;;;10.46;62.08
11339;BME280;5724;42.684;23.252;2024-03-29T02:17:27;94266.28;;;10.48;62.15
11339;BME280;5724;42.684;23.252;2024-03-29T02:20:12;94274.84;;;10.47;61.49
11339;BME280;5724;42.684;23.252;2024-03-29T02:23:06;94279.16;;;10.48;61.37
11339;BME280;5724;42.684;23.252;2024-03-29T02:25:54;94272.97;;;10.51;61.38
11339;BME280;5724;42.684;23.252;2024-03-29T02:28:39;94278.88;;;10.53;61.28
11339;BME280;5724;42.684;23.252;2024-03-29T02:31:24;94294.41;;;10.49;61.47
11339;BME280;5724;42.684;23.252;2024-03-29T02:34:08;94303.16;;;10.58;61.52
11339;BME280;5724;42.684;23.252;2024-03-29T02:36:53;94295.69;;;10.55;61.61
11339;BME280;5724;42.684;23.252;2024-03-29T02:39:37;94305.25;;;10.65;60.79
11339;BME280;5724;42.684;23.252;2024-03-29T02:42:22;94295.19;;;10.69;60.43
11339;BME280;5724;42.684;23.252;2024-03-29T02:45:06;94303.53;;;10.76;60.50
11339;BME280;5724;42.684;23.252;2024-03-29T02:47:51;94300.16;;;10.63;60.95
11339;BME280;5724;42.684;23.252;2024-03-29T02:50:35;94310.22;;;10.78;60.89
11339;BME280;5724;42.684;23.252;2024-03-29T02:53:19;94312.94;;;10.78;60.37
11339;BME280;5724;42.684;23.252;2024-03-29T02:56:03;94319.41;;;10.89;59.73
11339;BME280;5724;42.684;23.252;2024-03-29T02:58:48;94317.13;;;10.92;59.94
11339;BME280;5724;42.684;23.252;2024-03-29T03:01:32;94310.06;;;10.91;60.19
11339;BME280;5724;42.684;23.252;2024-03-29T03:04:16;94320.13;;;10.86;60.22
11339;BME280;5724;42.684;23.252;2024-03-29T03:06:59;94320.66;;;10.73;60.54
11339;BME280;5724;42.684;23.252;2024-03-29T03:10:02;94332.28;;;10.89;60.08
11339;BME280;5724;42.684;23.252;2024-03-29T03:13:05;94323.38;;;10.73;60.54
11339;BME280;5724;42.684;23.252;2024-03-29T03:15:49;94339.56;;;10.81;60.37
11339;BME280;5724;42.684;23.252;2024-03-29T03:18:33;94332.22;;;10.85;60.24
11339;BME280;5724;42.684;23.252;2024-03-29T03:21:17;94335.31;;;10.84;60.11
11339;BME280;5724;42.684;23.252;2024-03-29T03:24:01;94342.72;;;10.83;60.23
11339;BME280;5724;42.684;23.252;2024-03-29T03:26:48;94344.69;;;10.83;60.68
11339;BME280;5724;42.684;23.252;2024-03-29T03:29:31;94355.28;;;10.49;61.76
11339;BME280;5724;42.684;23.252;2024-03-29T03:32:15;94359.75;;;10.57;61.48
11339;BME280;5724;42.684;23.252;2024-03-29T03:34:59;94349.47;;;10.70;60.89
11339;BME280;5724;42.684;23.252;2024-03-29T03:37:44;94342.38;;;10.66;60.73
11339;BME280;5724;42.684;23.252;2024-03-29T03:40:28;94352.44;;;10.62;60.90
11339;BME280;5724;42.684;23.252;2024-03-29T03:43:12;94356.81;;;10.66;60.67
11339;BME280;5724;42.684;23.252;2024-03-29T03:46:01;94369.31;;;10.67;60.51
11339;BME280;5724;42.684;23.252;2024-03-29T03:48:46;94349.94;;;10.72;60.61
11339;BME280;5724;42.684;23.252;2024-03-29T03:51:30;94386.47;;;10.83;60.00
11339;BME280;5724;42.684;23.252;2024-03-29T03:54:14;94387.53;;;10.79;60.01
11339;BME280;5724;42.684;23.252;2024-03-29T03:56:59;94397.97;;;10.93;59.78
11339;BME280;5724;42.684;23.252;2024-03-29T03:59:43;94378.84;;;10.93;59.44
11339;BME280;5724;42.684;23.252;2024-03-29T04:02:27;94395.94;;;10.89;59.65
11339;BME280;5724;42.684;23.252;2024-03-29T04:05:11;94402.91;;;10.87;59.42
11339;BME280;5724;42.684;23.252;2024-03-29T04:07:55;94410.06;;;10.92;59.44
11339;BME280;5724;42.684;23.252;2024-03-29T04:10:39;94410.13;;;10.95;59.55
11339;BME280;5724;42.684;23.252;2024-03-29T04:13:26;94402.66;;;10.92;59.48
11339;BME280;5724;42.684;23.252;2024-03-29T04:16:10;94425.16;;;11.05;59.43
11339;BME280;5724;42.684;23.252;2024-03-29T04:18:54;94426.00;;;11.09;59.35
11339;BME280;5724;42.684;23.252;2024-03-29T04:21:38;94412.06;;;11.14;58.93
11339;BME280;5724;42.684;23.252;2024-03-29T04:24:22;94431.78;;;11.04;59.11
11339;BME280;5724;42.684;23.252;2024-03-29T04:27:06;94418.69;;;10.94;59.40
11339;BME280;5724;42.684;23.252;2024-03-29T04:29:53;94429.06;;;11.04;59.03
11339;BME280;5724;42.684;23.252;2024-03-29T04:32:38;94429.41;;;11.02;58.76
11339;BME280;5724;42.684;23.252;2024-03-29T04:35:22;94455.09;;;11.17;58.36
11339;BME280;5724;42.684;23.252;2024-03-29T04:38:07;94454.03;;;11.22;58.26
11339;BME280;5724;42.684;23.252;2024-03-29T04:40:53;94456.84;;;11.25;58.17
11339;BME280;5724;42.684;23.252;2024-03-29T04:43:37;94448.56;;;11.22;58.00
11339;BME280;5724;42.684;23.252;2024-03-29T04:46:21;94469.66;;;11.40;57.88
11339;BME280;5724;42.684;23.252;2024-03-29T04:49:05;94465.91;;;11.49;57.99
11339;BME280;5724;42.684;23.252;2024-03-29T04:51:49;94473.03;;;11.53;57.73
11339;BME280;5724;42.684;23.252;2024-03-29T04:54:36;94478.44;;;11.50;57.33
11339;BME280;5724;42.684;23.252;2024-03-29T04:57:20;94485.09;;;11.71;57.46
11339;BME280;5724;42.684;23.252;2024-03-29T05:00:04;94484.78;;;11.76;56.99
11339;BME280;5724;42.684;23.252;2024-03-29T05:02:48;94488.84;;;11.83;57.13
11339;BME280;5724;42.684;23.252;2024-03-29T05:05:32;94482.41;;;11.94;56.52
11339;BME280;5724;42.684;23.252;2024-03-29T05:08:16;94478.22;;;12.00;56.43
11339;BME280;5724;42.684;23.252;2024-03-29T05:11:01;94485.28;;;12.01;56.26
11339;BME280;5724;42.684;23.252;2024-03-29T05:13:46;94503.19;;;12.18;56.40
11339;BME280;5724;42.684;23.252;2024-03-29T05:16:31;94497.03;;;12.25;56.52
11339;BME280;5724;42.684;23.252;2024-03-29T05:19:16;94503.84;;;12.35;55.95
11339;BME280;5724;42.684;23.252;2024-03-29T05:22:00;94509.16;;;12.47;55.69
11339;BME280;5724;42.684;23.252;2024-03-29T05:24:53;94517.19;;;12.59;55.09
11339;BME280;5724;42.684;23.252;2024-03-29T05:27:40;94517.19;;;12.59;55.43
11339;BME280;5724;42.684;23.252;2024-03-29T05:30:24;94518.03;;;12.63;55.40
11339;BME280;5724;42.684;23.252;2024-03-29T05:33:08;94526.75;;;12.69;55.11
11339;BME280;5724;42.684;23.252;2024-03-29T05:35:52;94528.13;;;12.82;54.94
11339;BME280;5724;42.684;23.252;2024-03-29T05:38:37;94534.50;;;12.89;54.01
11339;BME280;5724;42.684;23.252;2024-03-29T05:41:21;94534.88;;;12.88;54.20
11339;BME280;5724;42.684;23.252;2024-03-29T05:44:06;94526.00;;;12.98;53.67
11339;BME280;5724;42.684;23.252;2024-03-29T05:46:51;94537.50;;;13.07;53.44
11339;BME280;5724;42.684;23.252;2024-03-29T05:49:34;94527.06;;;13.16;53.36
11339;BME280;5724;42.684;23.252;2024-03-29T05:52:18;94525.31;;;13.31;53.13
11339;BME280;5724;42.684;23.252;2024-03-29T05:55:07;94533.50;;;13.54;52.74
11339;BME280;5724;42.684;23.252;2024-03-29T05:57:53;94533.44;;;13.51;52.64
11339;BME280;5724;42.684;23.252;2024-03-29T06:00:37;94540.19;;;13.57;52.57
11339;BME280;5724;42.684;23.252;2024-03-29T06:03:21;94530.59;;;13.73;52.50
11339;BME280;5724;42.684;23.252;2024-03-29T06:06:06;94548.88;;;13.92;51.87
11339;BME280;5724;42.684;23.252;2024-03-29T06:08:51;94539.66;;;14.11;51.47
11339;BME280;5724;42.684;23.252;2024-03-29T06:11:35;94543.41;;;14.33;50.89
11339;BME280;5724;42.684;23.252;2024-03-29T06:14:19;94546.53;;;14.31;51.34
11339;BME280;5724;42.684;23.252;2024-03-29T06:17:22;94545.53;;;14.47;50.69
11339;BME280;5724;42.684;23.252;2024-03-29T06:20:09;94541.03;;;14.31;49.54
11339;BME280;5724;42.684;23.252;2024-03-29T06:22:53;94540.03;;;14.47;49.68
11339;BME280;5724;42.684;23.252;2024-03-29T06:25:38;94560.16;;;14.21;49.87
11339;BME280;5724;42.684;23.252;2024-03-29T06:28:23;94549.22;;;14.28;49.14
11339;BME280;5724;42.684;23.252;2024-03-29T06:31:07;94544.50;;;14.25;49.70
11339;BME280;5724;42.684;23.252;2024-03-29T06:33:50;94570.44;;;14.27;49.52
11339;BME280;5724;42.684;23.252;2024-03-29T06:36:37;94559.31;;;14.50;49.11
11339;BME280;5724;42.684;23.252;2024-03-29T06:39:22;94562.88;;;14.54;48.69
11339;BME280;5724;42.684;23.252;2024-03-29T06:42:07;94560.13;;;14.54;49.08
11339;BME280;5724;42.684;23.252;2024-03-29T06:44:51;94559.81;;;14.63;49.40
11339;BME280;5724;42.684;23.252;2024-03-29T06:47:36;94568.00;;;14.56;48.75
11339;BME280;5724;42.684;23.252;2024-03-29T06:50:20;94559.28;;;14.47;49.91
11339;BME280;5724;42.684;23.252;2024-03-29T06:53:04;94558.66;;;14.64;49.63
11339;BME280;5724;42.684;23.252;2024-03-29T06:55:48;94560.84;;;14.88;49.11
11339;BME280;5724;42.684;23.252;2024-03-29T06:58:33;94563.53;;;14.81;49.44
11339;BME280;5724;42.684;23.252;2024-03-29T07:01:17;94575.28;;;14.78;49.33
11339;BME280;5724;42.684;23.252;2024-03-29T07:04:01;94579.72;;;14.90;49.14
11339;BME280;5724;42.684;23.252;2024-03-29T07:06:45;94572.72;;;15.00;48.71
11339;BME280;5724;42.684;23.252;2024-03-29T07:09:31;94577.66;;;15.31;48.86
11339;BME280;5724;42.684;23.252;2024-03-29T07:12:16;94587.09;;;15.30;48.03
11339;BME280;5724;42.684;23.252;2024-03-29T07:15:00;94581.19;;;15.28;48.44
11339;BME280;5724;42.684;23.252;2024-03-29T07:17:44;94581.63;;;15.37;48.58
11339;BME280;5724;42.684;23.252;2024-03-29T07:20:28;94588.06;;;15.56;47.71
11339;BME280;5724;42.684;23.252;2024-03-29T07:23:13;94581.06;;;15.72;46.90
11339;BME280;5724;42.684;23.252;2024-03-29T07:28:43;94582.38;;;15.96;46.84
11339;BME280;5724;42.684;23.252;2024-03-29T07:31:27;94579.19;;;15.91;47.45
11339;BME280;5724;42.684;23.252;2024-03-29T07:34:11;94579.22;;;15.94;47.61
11339;BME280;5724;42.684;23.252;2024-03-29T07:36:56;94572.59;;;16.06;46.02
11339;BME280;5724;42.684;23.252;2024-03-29T07:39:40;94580.72;;;15.81;46.42
11339;BME280;5724;42.684;23.252;2024-03-29T07:42:24;94580.38;;;15.86;47.11
11339;BME280;5724;42.684;23.252;2024-03-29T07:45:08;94575.91;;;15.60;47.78
11339;BME280;5724;42.684;23.252;2024-03-29T07:47:52;94571.03;;;16.19;46.98
11339;BME280;5724;42.684;23.252;2024-03-29T07:50:37;94570.25;;;16.19;46.83
11339;BME280;5724;42.684;23.252;2024-03-29T07:53:21;94568.38;;;16.51;46.14
11339;BME280;5724;42.684;23.252;2024-03-29T07:56:05;94573.47;;;16.49;45.80
11339;BME280;5724;42.684;23.252;2024-03-29T07:58:53;94583.78;;;16.67;45.80
11339;BME280;5724;42.684;23.252;2024-03-29T08:01:37;94580.28;;;16.98;45.24
11339;BME280;5724;42.684;23.252;2024-03-29T08:04:21;94574.38;;;16.89;45.01
11339;BME280;5724;42.684;23.252;2024-03-29T08:07:06;94569.25;;;17.16;44.20
11339;BME280;5724;42.684;23.252;2024-03-29T08:09:51;94580.66;;;17.43;44.96
11339;BME280;5724;42.684;23.252;2024-03-29T08:12:35;94573.97;;;17.48;43.79
11339;BME280;5724;42.684;23.252;2024-03-29T08:15:21;94575.88;;;17.86;43.64
11339;BME280;5724;42.684;23.252;2024-03-29T08:18:05;94570.66;;;18.02;43.04
11339;BME280;5724;42.684;23.252;2024-03-29T08:20:49;94567.81;;;18.27;43.25
11339;BME280;5724;42.684;23.252;2024-03-29T08:23:33;94565.44;;;18.22;42.02
11339;BME280;5724;42.684;23.252;2024-03-29T08:26:17;94562.69;;;18.26;41.69
11339;BME280;5724;42.684;23.252;2024-03-29T08:29:02;94559.13;;;18.25;42.09
11339;BME280;5724;42.684;23.252;2024-03-29T08:31:46;94554.50;;;18.01;41.64
11339;BME280;5724;42.684;23.252;2024-03-29T08:34:30;94547.38;;;18.00;42.29
11339;BME280;5724;42.684;23.252;2024-03-29T08:37:18;94548.75;;;18.40;41.92
11339;BME280;5724;42.684;23.252;2024-03-29T08:40:02;94549.94;;;18.46;40.57
11339;BME280;5724;42.684;23.252;2024-03-29T08:42:47;94544.66;;;18.73;39.49
11339;BME280;5724;42.684;23.252;2024-03-29T08:45:31;94553.00;;;18.63;41.29
11339;BME280;5724;42.684;23.252;2024-03-29T08:48:15;94547.06;;;18.64;39.92
11339;BME280;5724;42.684;23.252;2024-03-29T08:50:59;94545.88;;;19.17;39.95
11339;BME280;5724;42.684;23.252;2024-03-29T08:53:43;94545.63;;;19.01;38.96
11339;BME280;5724;42.684;23.252;2024-03-29T08:56:27;94541.44;;;19.30;38.44
11339;BME280;5724;42.684;23.252;2024-03-29T08:59:11;94532.25;;;19.37;37.54
11339;BME280;5724;42.684;23.252;2024-03-29T09:02:04;94532.97;;;19.44;38.62
11339;BME280;5724;42.684;23.252;2024-03-29T09:04:49;94525.28;;;19.18;38.29
11339;BME280;5724;42.684;23.252;2024-03-29T09:07:33;94518.81;;;19.35;37.37
11339;BME280;5724;42.684;23.252;2024-03-29T09:10:18;94519.19;;;19.37;37.07
11339;BME280;5724;42.684;23.252;2024-03-29T09:13:02;94511.13;;;19.09;37.23
11339;BME280;5724;42.684;23.252;2024-03-29T09:15:46;94509.81;;;19.65;36.48
11339;BME280;5724;42.684;23.252;2024-03-29T09:18:31;94503.34;;;19.79;35.32
11339;BME280;5724;42.684;23.252;2024-03-29T09:21:15;94509.53;;;19.53;32.77
11339;BME280;5724;42.684;23.252;2024-03-29T09:23:59;94492.81;;;19.63;34.56
11339;BME280;5724;42.684;23.252;2024-03-29T09:26:44;94498.38;;;19.63;34.41
11339;BME280;5724;42.684;23.252;2024-03-29T09:29:28;94497.16;;;19.64;33.46
11339;BME280;5724;42.684;23.252;2024-03-29T09:32:12;94463.22;;;19.15;34.87
11339;BME280;5724;42.684;23.252;2024-03-29T09:34:56;94471.25;;;19.03;35.26
11339;BME280;5724;42.684;23.252;2024-03-29T09:37:40;94459.56;;;18.81;35.65
11339;BME280;5724;42.684;23.252;2024-03-29T09:40:26;94464.94;;;18.99;35.79
11339;BME280;5724;42.684;23.252;2024-03-29T09:43:14;94464.47;;;19.45;36.01
11339;BME280;5724;42.684;23.252;2024-03-29T09:45:59;94461.94;;;19.95;36.69
11339;BME280;5724;42.684;23.252;2024-03-29T09:48:44;94453.72;;;20.15;35.31
11339;BME280;5724;42.684;23.252;2024-03-29T09:51:32;94452.78;;;20.25;35.60
11339;BME280;5724;42.684;23.252;2024-03-29T09:54:16;94446.31;;;20.09;36.34
11339;BME280;5724;42.684;23.252;2024-03-29T09:57:02;94437.44;;;19.90;36.59
11339;BME280;5724;42.684;23.252;2024-03-29T09:59:49;94431.59;;;20.12;35.65
11339;BME280;5724;42.684;23.252;2024-03-29T10:02:33;94445.91;;;20.10;35.73
11339;BME280;5724;42.684;23.252;2024-03-29T10:05:18;94441.13;;;20.11;36.30
11339;BME280;5724;42.684;23.252;2024-03-29T10:08:04;94426.41;;;20.41;37.02
11339;BME280;5724;42.684;23.252;2024-03-29T10:10:51;94440.66;;;20.70;36.87
11339;BME280;5724;42.684;23.252;2024-03-29T10:13:37;94434.28;;;20.46;35.86
11339;BME280;5724;42.684;23.252;2024-03-29T10:16:22;94423.03;;;21.03;35.71
11339;BME280;5724;42.684;23.252;2024-03-29T10:19:08;94424.81;;;20.43;35.45
11339;BME280;5724;42.684;23.252;2024-03-29T10:21:52;94432.34;;;20.70;35.44
11339;BME280;5724;42.684;23.252;2024-03-29T10:24:37;94430.72;;;20.72;35.49
11339;BME280;5724;42.684;23.252;2024-03-29T10:27:21;94430.63;;;21.23;35.61
11339;BME280;5724;42.684;23.252;2024-03-29T10:30:07;94439.97;;;21.76;35.54
11339;BME280;5724;42.684;23.252;2024-03-29T10:32:55;94436.50;;;22.27;33.99
11339;BME280;5724;42.684;23.252;2024-03-29T10:35:43;94434.47;;;22.12;33.57
11339;BME280;5724;42.684;23.252;2024-03-29T10:38:28;94434.94;;;22.26;33.88
11339;BME280;5724;42.684;23.252;2024-03-29T10:41:12;94422.97;;;21.90;33.75
11339;BME280;5724;42.684;23.252;2024-03-29T10:43:57;94425.13;;;22.02;34.52
11339;BME280;5724;42.684;23.252;2024-03-29T10:46:42;94420.72;;;22.41;34.09
11339;BME280;5724;42.684;23.252;2024-03-29T10:49:29;94415.94;;;22.74;34.07
11339;BME280;5724;42.684;23.252;2024-03-29T10:52:17;94417.72;;;22.32;34.33
11339;BME280;5724;42.684;23.252;2024-03-29T10:55:03;94420.44;;;22.51;34.48
11339;BME280;5724;42.684;23.252;2024-03-29T10:57:48;94418.53;;;22.65;35.52
11339;BME280;5724;42.684;23.252;2024-03-29T11:00:38;94418.47;;;22.84;34.00
11339;BME280;5724;42.684;23.252;2024-03-29T11:03:37;94406.28;;;22.95;33.63
11339;BME280;5724;42.684;23.252;2024-03-29T11:06:25;94406.63;;;22.97;33.95
11339;BME280;5724;42.684;23.252;2024-03-29T11:09:13;94400.00;;;22.58;34.10
11339;BME280;5724;42.684;23.252;2024-03-29T11:11:58;94410.47;;;22.18;34.04
11339;BME280;5724;42.684;23.252;2024-03-29T11:14:57;94401.97;;;22.25;34.72
11339;BME280;5724;42.684;23.252;2024-03-29T11:17:44;94403.22;;;22.40;34.25
11339;BME280;5724;42.684;23.252;2024-03-29T11:20:29;94399.31;;;22.70;34.14
11339;BME280;5724;42.684;23.252;2024-03-29T11:23:21;94392.69;;;22.64;33.68
11339;BME280;5724;42.684;23.252;2024-03-29T11:26:06;94391.63;;;22.74;33.51
11339;BME280;5724;42.684;23.252;2024-03-29T11:28:52;94403.16;;;22.60;33.66
11339;BME280;5724;42.684;23.252;2024-03-29T11:31:38;94394.53;;;22.71;33.94
11339;BME280;5724;42.684;23.252;2024-03-29T11:34:22;94401.34;;;21.97;34.49
11339;BME280;5724;42.684;23.252;2024-03-29T11:37:07;94393.91;;;22.47;34.31
11339;BME280;5724;42.684;23.252;2024-03-29T11:39:54;94388.59;;;22.36;34.68
11339;BME280;5724;42.684;23.252;2024-03-29T11:42:47;94385.03;;;22.68;34.12
11339;BME280;5724;42.684;23.252;2024-03-29T11:45:31;94401.88;;;21.92;34.67
11339;BME280;5724;42.684;23.252;2024-03-29T11:48:22;94387.00;;;21.99;35.04
11339;BME280;5724;42.684;23.252;2024-03-29T11:51:11;94385.81;;;22.20;33.71
11339;BME280;5724;42.684;23.252;2024-03-29T11:53:59;94377.97;;;21.95;34.77
11339;BME280;5724;42.684;23.252;2024-03-29T11:56:43;94379.88;;;21.98;35.13
11339;BME280;5724;42.684;23.252;2024-03-29T11:59:28;94373.84;;;22.19;34.84
11339;BME280;5724;42.684;23.252;2024-03-29T12:02:14;94372.03;;;22.13;34.45
11339;BME280;5724;42.684;23.252;2024-03-29T12:05:05;94363.69;;;22.13;34.89
11339;BME280;5724;42.684;23.252;2024-03-29T12:07:49;94365.56;;;22.68;34.86
11339;BME280;5724;42.684;23.252;2024-03-29T12:10:37;94373.19;;;22.64;32.87
11339;BME280;5724;42.684;23.252;2024-03-29T12:13:30;94368.34;;;22.84;33.21
11339;BME280;5724;42.684;23.252;2024-03-29T12:16:15;94365.19;;;22.82;32.45
11339;BME280;5724;42.684;23.252;2024-03-29T12:18:59;94370.03;;;22.13;33.42
11339;BME280;5724;42.684;23.252;2024-03-29T12:21:43;94357.19;;;22.52;33.42
11339;BME280;5724;42.684;23.252;2024-03-29T12:24:27;94366.84;;;22.80;33.22
11339;BME280;5724;42.684;23.252;2024-03-29T12:27:11;94359.16;;;22.68;33.22
11339;BME280;5724;42.684;23.252;2024-03-29T12:29:55;94364.94;;;21.92;32.95
11339;BME280;5724;42.684;23.252;2024-03-29T12:32:40;94358.78;;;21.81;33.05
11339;BME280;5724;42.684;23.252;2024-03-29T12:35:27;94363.53;;;22.00;32.74
11339;BME280;5724;42.684;23.252;2024-03-29T12:38:12;94366.19;;;22.07;32.15
11339;BME280;5724;42.684;23.252;2024-03-29T12:40:59;94361.38;;;22.44;32.49
11339;BME280;5724;42.684;23.252;2024-03-29T12:43:45;94359.78;;;22.75;30.91
11339;BME280;5724;42.684;23.252;2024-03-29T12:46:29;94357.50;;;23.03;29.58
11339;BME280;5724;42.684;23.252;2024-03-29T12:49:14;94360.75;;;23.30;29.43
11339;BME280;5724;42.684;23.252;2024-03-29T12:51:58;94359.78;;;23.66;28.76
11339;BME280;5724;42.684;23.252;2024-03-29T12:54:43;94353.69;;;23.84;28.38
11339;BME280;5724;42.684;23.252;2024-03-29T12:57:27;94349.78;;;24.07;28.85
11339;BME280;5724;42.684;23.252;2024-03-29T13:00:12;94354.53;;;24.35;28.99
11339;BME280;5724;42.684;23.252;2024-03-29T13:02:56;94352.56;;;24.70;27.78
11339;BME280;5724;42.684;23.252;2024-03-29T13:05:40;94360.84;;;23.97;26.74
11339;BME280;5724;42.684;23.252;2024-03-29T13:08:25;94347.66;;;24.11;27.20
11339;BME280;5724;42.684;23.252;2024-03-29T13:11:09;94344.31;;;24.16;27.95
11339;BME280;5724;42.684;23.252;2024-03-29T13:13:54;94332.06;;;24.39;26.79
11339;BME280;5724;42.684;23.252;2024-03-29T13:16:40;94349.56;;;23.88;27.41
11339;BME280;5724;42.684;23.252;2024-03-29T13:19:24;94346.56;;;23.95;26.65
11339;BME280;5724;42.684;23.252;2024-03-29T13:22:09;94344.19;;;23.81;27.08
11339;BME280;5724;42.684;23.252;2024-03-29T13:24:54;94345.31;;;24.09;26.73
11339;BME280;5724;42.684;23.252;2024-03-29T13:27:39;94355.91;;;24.02;26.14
11339;BME280;5724;42.684;23.252;2024-03-29T13:30:25;94337.38;;;23.82;26.26
11339;BME280;5724;42.684;23.252;2024-03-29T13:33:09;94338.69;;;23.65;26.93
11339;BME280;5724;42.684;23.252;2024-03-29T13:35:54;94347.31;;;23.54;28.60
11339;BME280;5724;42.684;23.252;2024-03-29T13:38:40;94336.69;;;23.78;26.49
11339;BME280;5724;42.684;23.252;2024-03-29T13:41:24;94334.28;;;24.06;26.16
11339;BME280;5724;42.684;23.252;2024-03-29T13:44:08;94330.13;;;24.10;26.62
11339;BME280;5724;42.684;23.252;2024-03-29T13:46:52;94332.81;;;24.01;26.19
11339;BME280;5724;42.684;23.252;2024-03-29T13:49:37;94336.13;;;23.83;26.93
11339;BME280;5724;42.684;23.252;2024-03-29T13:52:21;94336.84;;;24.00;27.13
11339;BME280;5724;42.684;23.252;2024-03-29T13:55:05;94339.31;;;24.23;27.06
11339;BME280;5724;42.684;23.252;2024-03-29T13:57:49;94327.56;;;24.28;26.56
11339;BME280;5724;42.684;23.252;2024-03-29T14:00:33;94322.75;;;24.29;25.69
11339;BME280;5724;42.684;23.252;2024-03-29T14:03:18;94318.63;;;24.59;25.74
11339;BME280;5724;42.684;23.252;2024-03-29T14:06:03;94321.41;;;24.72;25.46
11339;BME280;5724;42.684;23.252;2024-03-29T14:08:48;94320.88;;;24.26;25.50
11339;BME280;5724;42.684;23.252;2024-03-29T14:11:32;94315.97;;;24.17;25.56
11339;BME280;5724;42.684;23.252;2024-03-29T14:14:17;94315.13;;;24.80;25.90
11339;BME280;5724;42.684;23.252;2024-03-29T14:17:02;94318.44;;;24.88;26.14
11339;BME280;5724;42.684;23.252;2024-03-29T14:19:48;94310.38;;;25.03;25.63
11339;BME280;5724;42.684;23.252;2024-03-29T14:22:35;94321.13;;;24.79;24.64
11339;BME280;5724;42.684;23.252;2024-03-29T14:25:24;94275.56;;;24.69;24.42
11339;BME280;5724;42.684;23.252;2024-03-29T14:28:08;94312.84;;;24.88;24.40
11339;BME280;5724;42.684;23.252;2024-03-29T14:30:52;94316.81;;;24.65;24.87
11339;BME280;5724;42.684;23.252;2024-03-29T14:33:36;94324.09;;;24.97;25.13
11339;BME280;5724;42.684;23.252;2024-03-29T14:36:21;94300.44;;;25.02;24.66